Time;durP1;ratioP1;P1;durP2;ratioP2;P2;SDS_P1;SDS_P2;PMS_P1;PMS_P2;Temp;Humidity;BMP_temperature;BMP_pressure;BME280_temperature;BME280_humidity;BME280_pressure;Samples;Min_cycle;Max_cycle;Signal;HPM_P1;HPM_P2
2023/01/07 00:00:04;;;;;;;4.30;3.70;;;11.20;99.90;;;;;;5038242;28;20201;-91
2023/01/07 00:02:34;;;;;;;7.07;3.83;;;11.30;99.90;;;;;;5020562;28;20262;-91
2023/01/07 00:05:08;;;;;;;5.97;3.73;;;11.30;99.90;;;;;;5037968;28;20639;-90
2023/01/07 00:07:38;;;;;;;13.13;4.10;;;11.30;99.90;;;;;;5037554;28;20259;-89
2023/01/07 00:10:08;;;;;;;5.07;4.47;;;11.20;99.90;;;;;;5037010;28;20435;-89
2023/01/07 00:12:36;;;;;;;8.40;4.50;;;11.30;99.90;;;;;;5039038;28;20217;-93
2023/01/07 00:15:06;;;;;;;7.23;4.13;;;11.30;99.90;;;;;;5037659;28;20213;-90
2023/01/07 00:17:35;;;;;;;3.60;3.10;;;11.20;99.90;;;;;;5036821;28;20266;-90
2023/01/07 00:20:06;;;;;;;6.03;3.67;;;11.30;99.90;;;;;;5037199;28;20189;-93
2023/01/07 00:22:39;;;;;;;4.13;3.40;;;11.30;99.90;;;;;;5037765;28;20220;-90
2023/01/07 00:25:09;;;;;;;3.70;3.40;;;11.30;99.90;;;;;;5037651;28;20223;-91
2023/01/07 00:27:40;;;;;;;8.23;3.73;;;11.30;99.90;;;;;;5037640;28;20231;-91
2023/01/07 00:30:09;;;;;;;7.13;3.87;;;11.20;99.90;;;;;;5037777;28;20216;-92
2023/01/07 00:32:53;;;;;;;6.00;4.10;;;11.20;99.90;;;;;;5037069;28;20608;-90
2023/01/07 00:35:23;;;;;;;5.30;3.60;;;11.20;99.90;;;;;;5040741;28;20200;-89
2023/01/07 00:37:50;;;;;;;4.60;3.57;;;11.20;99.90;;;;;;5055332;28;20204;-94
2023/01/07 00:40:17;;;;;;;5.43;3.43;;;11.20;99.90;;;;;;5051042;28;20214;-91
2023/01/07 00:42:54;;;;;;;4.87;3.50;;;11.20;99.90;;;;;;5047760;28;20212;-93
2023/01/07 00:45:23;;;;;;;4.53;3.47;;;11.30;99.90;;;;;;5053209;28;20204;-90
2023/01/07 00:47:52;;;;;;;5.57;3.20;;;11.20;99.90;;;;;;5056170;28;20227;-91
2023/01/07 00:50:28;;;;;;;7.63;3.67;;;11.20;99.90;;;;;;5043820;28;20236;-92
2023/01/07 00:52:56;;;;;;;8.00;3.70;;;11.20;99.90;;;;;;5043302;28;20256;-91
2023/01/07 00:55:25;;;;;;;5.53;3.73;;;11.30;99.90;;;;;;5049020;28;20204;-91
2023/01/07 00:57:54;;;;;;;6.68;4.70;;;11.20;99.90;;;;;;5044727;28;20926;-91
2023/01/07 01:00:27;;;;;;;4.73;3.87;;;11.30;99.90;;;;;;5055708;28;20205;-91
2023/01/07 01:02:56;;;;;;;4.07;3.63;;;11.30;99.90;;;;;;5056923;28;20203;-91
2023/01/07 01:05:24;;;;;;;5.07;4.13;;;11.20;99.90;;;;;;5043261;28;20204;-91
2023/01/07 01:07:51;;;;;;;4.90;4.13;;;11.30;99.90;;;;;;5056955;28;20223;-92
2023/01/07 01:10:20;;;;;;;4.87;3.80;;;11.30;99.90;;;;;;5056699;28;20251;-91
2023/01/07 01:12:50;;;;;;;4.63;3.77;;;11.30;99.90;;;;;;5055984;28;20231;-95
2023/01/07 01:15:24;;;;;;;3.50;3.20;;;11.20;99.90;;;;;;5056838;28;20200;-93
2023/01/07 01:17:52;;;;;;;9.20;4.33;;;11.20;99.90;;;;;;5056658;28;20215;-94
2023/01/07 01:20:25;;;;;;;6.13;4.18;;;11.30;99.90;;;;;;5056335;28;20430;-94
2023/01/07 01:22:52;;;;;;;5.37;3.87;;;11.30;99.90;;;;;;5056087;28;20206;-91
2023/01/07 01:25:19;;;;;;;8.10;4.30;;;11.30;99.90;;;;;;5056059;28;20686;-91
2023/01/07 01:27:47;;;;;;;3.60;3.30;;;11.40;99.90;;;;;;5056019;28;20281;-92
2023/01/07 01:30:14;;;;;;;6.03;3.90;;;11.40;99.90;;;;;;5055443;28;20212;-92
2023/01/07 01:32:42;;;;;;;4.53;3.60;;;11.40;99.90;;;;;;5055948;28;20206;-91
2023/01/07 01:35:09;;;;;;;6.53;4.23;;;11.50;99.90;;;;;;5056037;28;20207;-95
2023/01/07 01:37:42;;;;;;;8.90;4.03;;;11.40;99.90;;;;;;5055700;28;20588;-90
2023/01/07 01:40:11;;;;;;;8.70;4.17;;;11.50;99.90;;;;;;5056559;28;20208;-90
2023/01/07 01:42:39;;;;;;;5.10;3.97;;;11.50;99.90;;;;;;5055754;28;20212;-90
2023/01/07 01:45:07;;;;;;;6.80;4.47;;;11.50;99.90;;;;;;5056035;28;20563;-90
2023/01/07 01:47:40;;;;;;;5.40;3.93;;;11.50;99.90;;;;;;5055854;28;20226;-91
2023/01/07 01:50:16;;;;;;;5.97;3.73;;;11.50;99.90;;;;;;5055799;28;20212;-90
2023/01/07 01:52:47;;;;;;;5.10;3.93;;;11.60;99.90;;;;;;5055451;28;20209;-90
2023/01/07 01:55:19;;;;;;;6.50;4.13;;;11.60;99.90;;;;;;5055852;28;20615;-90
2023/01/07 01:57:50;;;;;;;6.93;4.63;;;11.60;99.90;;;;;;5055766;28;20188;-90
2023/01/07 02:00:20;;;;;;;5.63;4.20;;;11.60;99.90;;;;;;5055492;28;20199;-91
2023/01/07 02:02:49;;;;;;;7.40;4.40;;;11.60;99.90;;;;;;5055611;28;20209;-90
2023/01/07 02:05:24;;;;;;;5.10;4.60;;;11.60;99.90;;;;;;5054251;28;20678;-90
2023/01/07 02:07:56;;;;;;;8.70;4.90;;;11.50;99.90;;;;;;5055459;28;20232;-90
2023/01/07 02:10:25;;;;;;;7.17;5.50;;;11.50;99.90;;;;;;5055258;28;20236;-90
2023/01/07 02:13:23;;;;;;;8.07;6.33;;;11.50;99.90;;;;;;5055202;28;20213;-90
2023/01/07 02:15:59;;;;;;;9.50;6.37;;;11.60;99.90;;;;;;5055074;28;20205;-90
2023/01/07 02:18:43;;;;;;;7.97;6.37;;;11.60;99.90;;;;;;5053970;28;20207;-90
2023/01/07 02:21:39;;;;;;;8.77;6.70;;;11.60;99.90;;;;;;5054139;28;20204;-90
2023/01/07 02:24:50;;;;;;;8.53;6.23;;;11.70;99.90;;;;;;5053184;28;20312;-91
2023/01/07 02:27:32;;;;;;;5.67;5.13;;;11.60;99.90;;;;;;5055097;28;20224;-90
2023/01/07 02:30:37;;;;;;;6.93;5.13;;;11.50;99.90;;;;;;5054937;28;20277;-89
2023/01/07 02:33:22;;;;;;;7.18;5.20;;;11.40;99.90;;;;;;5054228;28;20433;-91
2023/01/07 02:36:22;;;;;;;6.67;4.77;;;11.40;99.90;;;;;;5055197;28;20651;-91
2023/01/07 02:39:04;;;;;;;6.10;4.67;;;11.40;99.90;;;;;;5039818;28;20211;-89
2023/01/07 02:41:42;;;;;;;5.40;4.90;;;11.40;99.90;;;;;;5054385;28;20578;-90
2023/01/07 02:44:25;;;;;;;6.13;4.20;;;11.30;99.90;;;;;;5054681;28;20270;-90
2023/01/07 02:47:03;;;;;;;4.67;4.20;;;11.30;99.90;;;;;;5054663;28;20207;-91
2023/01/07 02:49:34;;;;;;;7.87;4.10;;;11.30;99.90;;;;;;5054490;28;20237;-91
2023/01/07 02:52:20;;;;;;;5.20;3.80;;;11.30;99.90;;;;;;5054455;28;20199;-91
2023/01/07 02:54:54;;;;;;;5.87;3.63;;;11.30;99.90;;;;;;5052574;28;20215;-91
2023/01/07 02:57:54;;;;;;;4.30;3.47;;;11.30;99.90;;;;;;5054327;28;20199;-90
2023/01/07 03:00:40;;;;;;;3.83;3.50;;;11.30;99.90;;;;;;5054616;28;20565;-91
2023/01/07 03:03:19;;;;;;;3.37;2.90;;;11.20;99.90;;;;;;5054213;28;20211;-91
2023/01/07 03:05:58;;;;;;;4.07;3.20;;;11.20;99.90;;;;;;5054423;28;20252;-90
2023/01/07 03:08:44;;;;;;;3.80;3.03;;;11.20;99.90;;;;;;5053938;28;20226;-90
2023/01/07 03:11:14;;;;;;;5.30;3.07;;;11.30;99.90;;;;;;5054435;28;20218;-90
2023/01/07 03:13:48;;;;;;;5.10;3.10;;;11.30;99.90;;;;;;5054525;28;20231;-91
2023/01/07 03:16:19;;;;;;;3.97;3.07;;;11.30;99.90;;;;;;5054353;28;20655;-90
2023/01/07 03:18:54;;;;;;;6.73;3.30;;;11.30;99.90;;;;;;5054321;28;20650;-90
2023/01/07 03:21:27;;;;;;;5.60;3.40;;;11.30;99.90;;;;;;5051181;28;20211;-90
2023/01/07 03:23:56;;;;;;;3.80;3.13;;;11.20;99.90;;;;;;5042959;28;20209;-91
2023/01/07 03:26:26;;;;;;;3.10;2.60;;;11.30;99.90;;;;;;5038026;28;20224;-89
2023/01/07 03:28:58;;;;;;;6.10;3.20;;;11.30;99.90;;;;;;5051125;28;20220;-91
2023/01/07 03:31:27;;;;;;;2.93;2.70;;;11.30;99.90;;;;;;5040422;28;20212;-89
2023/01/07 03:33:59;;;;;;;3.30;2.93;;;11.40;99.90;;;;;;5053742;28;20218;-89
2023/01/07 03:36:33;;;;;;;6.47;2.90;;;11.50;99.90;;;;;;5054228;28;20212;-90
2023/01/07 03:39:02;;;;;;;4.70;2.80;;;11.40;99.90;;;;;;5041780;28;20216;-90
2023/01/07 03:44:18;;;;;;;5.10;2.87;;;11.50;99.90;;;;;;5053760;28;20261;-90
2023/01/07 03:46:47;;;;;;;5.80;2.90;;;11.60;99.90;;;;;;5040406;28;20209;-89
2023/01/07 03:49:17;;;;;;;3.10;2.80;;;11.60;99.90;;;;;;5052646;28;20223;-90
2023/01/07 03:51:49;;;;;;;3.67;2.80;;;11.60;99.90;;;;;;5053688;28;20219;-90
2023/01/07 03:54:23;;;;;;;4.50;2.77;;;11.60;99.90;;;;;;5053723;28;20216;-91
2023/01/07 03:56:51;;;;;;;4.03;3.33;;;11.50;99.90;;;;;;5040261;28;20220;-91
2023/01/07 03:59:18;;;;;;;3.40;2.70;;;11.50;99.90;;;;;;5054017;28;20220;-90
2023/01/07 04:01:46;;;;;;;4.10;2.50;;;11.50;99.90;;;;;;5052211;28;20644;-90
2023/01/07 04:04:12;;;;;;;2.83;2.40;;;11.50;99.90;;;;;;5042331;28;20224;-91
2023/01/07 04:06:53;;;;;;;3.03;2.40;;;11.60;99.90;;;;;;5053504;28;20220;-92
2023/01/07 04:09:21;;;;;;;3.40;2.10;;;11.50;99.90;;;;;;5053494;28;20229;-90
2023/01/07 04:11:51;;;;;;;4.77;2.37;;;11.50;99.90;;;;;;5053275;28;20229;-90
2023/01/07 04:14:18;;;;;;;2.80;2.00;;;11.60;99.90;;;;;;5053471;28;20213;-90
2023/01/07 04:16:49;;;;;;;3.80;2.13;;;11.60;99.90;;;;;;5053526;28;20222;-89
2023/01/07 04:19:22;;;;;;;4.37;2.13;;;11.50;99.90;;;;;;5053551;28;20205;-90
2023/01/07 04:21:53;;;;;;;2.13;2.00;;;11.50;99.90;;;;;;5040260;28;20217;-91
2023/01/07 04:24:20;;;;;;;2.10;1.90;;;11.50;99.90;;;;;;5053484;28;20205;-90
2023/01/07 04:26:47;;;;;;;2.90;2.20;;;11.50;99.90;;;;;;5053649;28;20251;-90
2023/01/07 04:29:14;;;;;;;2.07;1.97;;;11.50;99.90;;;;;;5052360;28;20243;-90
2023/01/07 04:31:43;;;;;;;4.17;2.20;;;11.40;99.90;;;;;;5053297;28;20200;-90
2023/01/07 04:34:10;;;;;;;3.03;1.80;;;11.40;99.90;;;;;;5053229;28;20217;-90
2023/01/07 04:36:38;;;;;;;4.60;2.00;;;11.50;99.90;;;;;;5045688;28;20212;-90
2023/01/07 04:39:07;;;;;;;2.63;2.27;;;11.40;99.90;;;;;;5048091;28;20228;-90
2023/01/07 04:41:35;;;;;;;2.73;2.20;;;11.40;99.90;;;;;;5052517;28;20209;-89
2023/01/07 04:44:05;;;;;;;4.13;2.03;;;11.40;99.90;;;;;;5052027;28;20220;-92
2023/01/07 04:46:32;;;;;;;2.50;1.93;;;11.30;99.90;;;;;;5045205;28;20192;-90
2023/01/07 04:49:05;;;;;;;2.80;1.70;;;11.30;99.90;;;;;;5057030;28;20230;-90
2023/01/07 04:51:38;;;;;;;2.13;1.93;;;11.30;99.90;;;;;;5056981;28;20204;-90
2023/01/07 04:54:05;;;;;;;1.90;1.63;;;11.30;99.90;;;;;;5043170;28;20219;-91
2023/01/07 04:56:33;;;;;;;1.50;1.40;;;11.30;99.90;;;;;;5056741;28;20201;-93
2023/01/07 04:59:01;;;;;;;4.30;1.67;;;11.20;99.90;;;;;;5038093;28;20210;-91
2023/01/07 05:01:31;;;;;;;3.47;1.60;;;11.20;99.90;;;;;;5037065;28;20200;-90
2023/01/07 05:04:00;;;;;;;1.57;1.47;;;11.20;99.90;;;;;;5035231;28;20217;-90
2023/01/07 05:06:26;;;;;;;2.10;1.50;;;11.10;99.90;;;;;;5036751;28;20205;-91
2023/01/07 05:08:55;;;;;;;1.50;1.40;;;11.20;99.90;;;;;;5036685;28;20243;-91
2023/01/07 05:11:23;;;;;;;1.63;1.47;;;11.10;99.90;;;;;;5036665;28;20227;-90
2023/01/07 05:13:52;;;;;;;1.53;1.40;;;11.20;99.90;;;;;;5035885;28;20198;-92
2023/01/07 05:16:22;;;;;;;2.20;1.43;;;11.20;99.90;;;;;;5035201;28;20247;-91
2023/01/07 05:18:54;;;;;;;2.93;1.20;;;11.20;99.90;;;;;;5036250;28;20660;-91
2023/01/07 05:21:27;;;;;;;1.10;1.10;;;11.30;99.90;;;;;;5036305;28;20212;-90
2023/01/07 05:23:55;;;;;;;2.40;1.50;;;11.40;99.90;;;;;;5035943;28;20189;-91
2023/01/07 05:26:22;;;;;;;3.00;1.40;;;11.30;99.90;;;;;;5032316;28;20260;-91
2023/01/07 05:28:49;;;;;;;1.93;1.27;;;11.30;99.90;;;;;;5035774;28;20328;-90
2023/01/07 05:31:19;;;;;;;2.00;1.27;;;11.20;99.90;;;;;;5034972;28;20204;-91
2023/01/07 05:33:52;;;;;;;3.60;1.47;;;11.20;99.90;;;;;;5036055;28;20209;-91
2023/01/07 05:36:24;;;;;;;1.50;1.40;;;11.30;99.90;;;;;;5036125;28;20209;-90
2023/01/07 05:38:52;;;;;;;1.40;1.30;;;11.20;99.90;;;;;;5035632;28;20220;-91
2023/01/07 05:41:20;;;;;;;1.83;1.40;;;11.30;99.90;;;;;;5035703;28;20229;-91
2023/01/07 05:43:47;;;;;;;1.87;1.40;;;11.30;99.90;;;;;;5035982;28;20223;-91
2023/01/07 05:46:21;;;;;;;1.70;1.60;;;11.20;99.90;;;;;;5035961;28;20206;-91
2023/01/07 05:48:50;;;;;;;1.75;1.20;;;11.20;99.90;;;;;;5034326;28;20927;-90
2023/01/07 05:51:20;;;;;;;1.50;1.37;;;11.30;99.90;;;;;;5035806;28;20198;-90
2023/01/07 05:53:52;;;;;;;1.80;1.50;;;11.30;99.90;;;;;;5035630;28;20213;-90
2023/01/07 05:56:20;;;;;;;2.13;1.30;;;11.30;99.90;;;;;;5035613;28;20221;-91
2023/01/07 05:58:50;;;;;;;1.63;1.50;;;11.10;99.90;;;;;;5035721;28;20221;-91
2023/01/07 06:01:20;;;;;;;2.47;1.57;;;11.30;99.90;;;;;;5039789;28;20212;-90
2023/01/07 06:03:50;;;;;;;1.17;1.10;;;11.30;99.90;;;;;;5035321;28;20211;-91
2023/01/07 06:06:20;;;;;;;4.87;1.27;;;11.30;99.90;;;;;;5035828;28;20206;-91
2023/01/07 06:08:48;;;;;;;2.27;1.90;;;11.30;99.90;;;;;;5035484;28;20564;-91
2023/01/07 06:11:17;;;;;;;4.10;2.17;;;11.30;99.90;;;;;;5034802;28;20209;-92
2023/01/07 06:13:44;;;;;;;6.20;2.67;;;11.30;99.90;;;;;;5035506;28;20194;-90
2023/01/07 06:16:13;;;;;;;4.77;2.73;;;11.20;99.90;;;;;;5034194;28;20212;-92
2023/01/07 06:18:40;;;;;;;6.70;3.17;;;11.20;99.90;;;;;;5035345;28;20194;-90
2023/01/07 06:21:08;;;;;;;5.47;3.37;;;11.20;99.90;;;;;;5034748;28;20201;-91
2023/01/07 06:23:36;;;;;;;8.17;3.70;;;11.20;99.90;;;;;;5034804;28;20581;-91
2023/01/07 06:26:02;;;;;;;6.17;3.70;;;11.20;99.90;;;;;;5034684;28;20209;-90
2023/01/07 06:28:30;;;;;;;8.77;3.90;;;11.30;99.90;;;;;;5034618;28;20216;-91
2023/01/07 06:30:58;;;;;;;10.30;4.13;;;11.30;99.90;;;;;;5034529;28;20241;-91
2023/01/07 06:33:26;;;;;;;6.57;3.87;;;11.40;99.90;;;;;;5035174;28;20592;-89
2023/01/07 06:35:54;;;;;;;7.38;5.07;;;11.30;99.90;;;;;;5034630;28;20443;-89
2023/01/07 06:38:25;;;;;;;7.87;4.33;;;11.40;99.90;;;;;;5035221;28;20212;-90
2023/01/07 06:40:53;;;;;;;6.63;3.87;;;11.40;99.90;;;;;;5034733;28;20210;-90
2023/01/07 06:43:26;;;;;;;8.20;3.57;;;11.50;99.90;;;;;;5035104;28;20210;-90
2023/01/07 06:46:00;;;;;;;4.87;2.80;;;11.30;99.90;;;;;;5034781;28;20214;-91
2023/01/07 06:48:32;;;;;;;4.60;2.50;;;11.30;99.90;;;;;;5035265;28;20504;-90
2023/01/07 06:51:06;;;;;;;3.47;2.20;;;11.30;99.90;;;;;;5034686;28;20228;-90
2023/01/07 06:53:34;;;;;;;2.27;1.97;;;11.30;99.90;;;;;;5034500;28;20213;-90
2023/01/07 06:56:02;;;;;;;1.90;1.70;;;11.20;99.90;;;;;;5034386;28;20633;-90
2023/01/07 06:58:31;;;;;;;1.90;1.80;;;11.20;99.90;;;;;;5033490;28;20204;-90
2023/01/07 07:01:04;;;;;;;2.20;1.90;;;11.20;99.90;;;;;;5033097;28;20443;-90
2023/01/07 07:03:32;;;;;;;3.50;1.60;;;11.30;99.90;;;;;;5040336;28;20193;-89
2023/01/07 07:06:00;;;;;;;2.07;1.60;;;11.30;99.90;;;;;;5053734;28;20248;-89
2023/01/07 07:08:28;;;;;;;2.03;1.53;;;11.40;99.90;;;;;;5053911;28;20204;-90
2023/01/07 07:11:02;;;;;;;4.33;1.43;;;11.30;99.90;;;;;;5054318;28;20240;-91
2023/01/07 07:13:29;;;;;;;3.30;1.80;;;11.30;99.90;;;;;;5054620;28;20218;-91
2023/01/07 07:15:57;;;;;;;2.07;1.63;;;11.20;99.90;;;;;;5054181;28;20210;-90
2023/01/07 07:18:27;;;;;;;1.60;1.47;;;11.30;99.90;;;;;;5053928;28;20674;-90
2023/01/07 07:20:57;;;;;;;2.30;1.67;;;11.30;99.90;;;;;;5053982;28;20659;-92
2023/01/07 07:23:27;;;;;;;2.10;1.43;;;11.30;99.90;;;;;;5053943;28;20722;-90
2023/01/07 07:25:56;;;;;;;2.10;1.57;;;11.30;99.90;;;;;;5053897;28;20635;-90
2023/01/07 07:28:26;;;;;;;1.30;1.20;;;11.30;99.90;;;;;;5053637;28;20207;-90
2023/01/07 07:30:55;;;;;;;1.80;1.40;;;11.30;99.90;;;;;;5052805;28;20242;-90
2023/01/07 07:33:23;;;;;;;5.57;1.60;;;11.30;99.90;;;;;;5054192;28;20199;-90
2023/01/07 07:35:50;;;;;;;2.20;1.53;;;11.30;99.90;;;;;;5052984;28;20207;-90
2023/01/07 07:38:20;;;;;;;3.53;1.70;;;11.30;99.90;;;;;;5054106;28;20209;-89
2023/01/07 07:40:47;;;;;;;2.00;1.50;;;11.30;99.90;;;;;;5052495;28;20199;-90
2023/01/07 07:43:16;;;;;;;2.87;1.77;;;11.30;99.90;;;;;;5053950;28;20204;-90
2023/01/07 07:45:46;;;;;;;2.37;1.60;;;11.30;99.90;;;;;;5053746;28;20205;-89
2023/01/07 07:48:15;;;;;;;3.55;2.13;;;11.30;99.90;;;;;;5053123;28;20425;-90
2023/01/07 07:50:43;;;;;;;2.57;1.93;;;11.40;99.90;;;;;;5053655;28;20236;-90
2023/01/07 07:53:11;;;;;;;4.57;2.47;;;11.40;99.90;;;;;;5053392;28;20204;-91
2023/01/07 07:55:43;;;;;;;3.60;2.33;;;11.40;99.90;;;;;;5053826;28;20648;-90
2023/01/07 07:58:11;;;;;;;5.00;2.43;;;11.40;99.90;;;;;;5053894;28;20654;-91
2023/01/07 08:00:40;;;;;;;4.10;2.60;;;11.40;99.90;;;;;;5054138;28;20197;-90
2023/01/07 08:03:11;;;;;;;3.60;2.60;;;11.50;99.90;;;;;;5054035;28;20193;-91
2023/01/07 08:05:41;;;;;;;5.70;3.30;;;11.30;99.90;;;;;;5053165;28;20233;-91
2023/01/07 08:08:12;;;;;;;5.10;3.03;;;11.30;99.90;;;;;;5053912;28;20207;-91
2023/01/07 08:10:42;;;;;;;5.93;2.97;;;11.30;99.90;;;;;;5053730;28;20263;-93
2023/01/07 08:13:13;;;;;;;4.60;2.70;;;11.30;99.90;;;;;;5053586;28;20210;-91
2023/01/07 08:15:41;;;;;;;2.80;2.30;;;11.30;99.90;;;;;;5054188;28;20302;-92
2023/01/07 08:18:11;;;;;;;4.33;2.83;;;11.30;99.90;;;;;;5053443;28;20684;-91
2023/01/07 08:20:40;;;;;;;3.87;2.83;;;11.30;99.90;;;;;;5057199;28;20646;-92
2023/01/07 08:23:15;;;;;;;4.50;2.20;;;11.30;99.90;;;;;;5057589;28;20197;-92
2023/01/07 08:25:47;;;;;;;3.37;1.90;;;11.30;99.90;;;;;;5057938;28;20551;-91
2023/01/07 08:28:15;;;;;;;2.80;2.27;;;11.30;99.90;;;;;;5063369;28;20199;-92
2023/01/07 08:30:43;;;;;;;2.30;2.10;;;11.30;99.90;;;;;;5067776;28;20695;-91
2023/01/07 08:33:13;;;;;;;2.43;1.77;;;11.30;99.90;;;;;;5065697;28;20524;-92
2023/01/07 08:35:40;;;;;;;1.97;1.77;;;11.30;99.90;;;;;;5057063;28;20204;-91
2023/01/07 08:38:10;;;;;;;3.10;1.90;;;11.30;99.90;;;;;;5064053;28;20198;-92
2023/01/07 08:40:38;;;;;;;3.97;1.83;;;11.30;99.90;;;;;;5076392;28;20224;-94
2023/01/07 08:43:08;;;;;;;3.77;2.20;;;11.30;99.90;;;;;;5077123;28;20226;-94
2023/01/07 08:45:36;;;;;;;4.60;2.43;;;11.30;99.90;;;;;;5075882;28;20665;-93
2023/01/07 08:48:03;;;;;;;6.13;3.10;;;11.30;99.90;;;;;;5076747;28;20205;-93
2023/01/07 08:50:35;;;;;;;4.60;3.33;;;11.30;99.90;;;;;;5076320;28;20240;-90
2023/01/07 08:53:02;;;;;;;8.13;4.00;;;11.30;99.90;;;;;;5077007;28;20197;-90
2023/01/07 08:55:34;;;;;;;4.57;3.40;;;11.30;99.90;;;;;;5073459;28;20222;-89
2023/01/07 08:58:03;;;;;;;5.40;3.60;;;11.20;99.90;;;;;;5077045;28;20631;-92
2023/01/07 09:00:30;;;;;;;3.87;2.90;;;11.30;99.90;;;;;;5077250;28;20211;-92
2023/01/07 09:03:01;;;;;;;3.47;2.60;;;11.20;99.90;;;;;;5076715;28;20201;-92
2023/01/07 09:05:31;;;;;;;3.67;2.50;;;11.20;99.90;;;;;;5076795;28;20780;-91
2023/01/07 09:08:06;;;;;;;5.00;2.60;;;11.20;99.90;;;;;;5076926;28;20200;-93
2023/01/07 09:10:35;;;;;;;4.73;2.20;;;11.20;99.90;;;;;;5076401;28;20227;-92
2023/01/07 09:13:09;;;;;;;4.17;2.33;;;11.10;99.90;;;;;;5076368;28;20206;-92
2023/01/07 09:15:37;;;;;;;4.57;2.20;;;11.30;99.90;;;;;;5076785;28;20204;-92
2023/01/07 09:18:05;;;;;;;2.57;2.10;;;11.10;99.90;;;;;;5076507;28;20209;-93
2023/01/07 09:20:32;;;;;;;4.00;1.80;;;11.20;99.90;;;;;;5076340;28;20226;-92
2023/01/07 09:23:02;;;;;;;1.43;1.30;;;11.10;99.90;;;;;;5076292;28;20284;-94
2023/01/07 09:25:30;;;;;;;2.03;1.50;;;11.00;99.90;;;;;;5075989;28;20195;-94
2023/01/07 09:27:59;;;;;;;2.27;1.37;;;11.20;99.90;;;;;;5075887;28;20301;-92
2023/01/07 09:30:26;;;;;;;2.63;1.47;;;11.20;99.90;;;;;;5075105;28;20215;-93
2023/01/07 09:32:59;;;;;;;1.50;1.40;;;11.20;99.90;;;;;;5075873;28;20207;-94
2023/01/07 09:35:26;;;;;;;1.40;1.30;;;11.00;99.90;;;;;;5075051;28;20247;-94
2023/01/07 09:37:53;;;;;;;1.60;1.50;;;11.30;99.90;;;;;;5076492;28;20197;-92
2023/01/07 09:40:25;;;;;;;1.73;1.63;;;11.20;99.90;;;;;;5076309;28;20203;-93
2023/01/07 09:43:06;;;;;;;2.27;1.60;;;11.20;99.90;;;;;;5076240;28;20204;-93
2023/01/07 09:45:36;;;;;;;1.57;1.47;;;11.20;99.90;;;;;;5074822;28;20206;-92
2023/01/07 09:48:17;;;;;;;1.80;1.70;;;11.20;99.90;;;;;;5076017;28;20191;-94
2023/01/07 09:50:52;;;;;;;2.28;2.08;;;11.10;99.90;;;;;;5075481;28;20534;-92
2023/01/07 09:53:24;;;;;;;3.63;2.33;;;11.20;99.90;;;;;;5075278;28;20210;-92
2023/01/07 09:55:55;;;;;;;2.03;1.80;;;11.20;99.90;;;;;;5075670;28;20191;-95
2023/01/07 09:58:27;;;;;;;2.83;1.93;;;11.20;99.90;;;;;;5077795;28;20210;-93
2023/01/07 10:01:16;;;;;;;2.83;1.93;;;11.20;99.90;;;;;;5075805;28;20190;-91
2023/01/07 10:03:54;;;;;;;2.33;1.70;;;11.20;99.90;;;;;;5075372;28;20196;-91
2023/01/07 10:06:31;;;;;;;2.60;2.00;;;11.30;99.90;;;;;;5075565;28;20207;-94
2023/01/07 10:09:07;;;;;;;2.47;2.07;;;11.30;99.90;;;;;;5075472;28;20207;-92
2023/01/07 10:11:45;;;;;;;3.73;2.37;;;11.30;99.90;;;;;;5075459;28;20588;-92
2023/01/07 10:14:57;;;;;;;3.70;1.73;;;11.30;99.90;;;;;;5075116;28;20557;-93
2023/01/07 10:17:44;;;;;;;1.83;1.63;;;11.30;99.90;;;;;;5035091;28;20272;-93
2023/01/07 10:20:20;;;;;;;1.70;1.50;;;11.30;99.90;;;;;;5058797;28;20265;-92
2023/01/07 10:22:52;;;;;;;1.63;1.43;;;11.30;99.90;;;;;;5060793;28;20203;-92
2023/01/07 10:25:28;;;;;;;1.53;1.43;;;11.30;99.90;;;;;;5054975;28;20265;-93
2023/01/07 10:28:04;;;;;;;2.40;1.70;;;11.30;99.90;;;;;;5054990;28;20200;-92
2023/01/07 10:30:42;;;;;;;2.27;2.07;;;11.30;99.90;;;;;;5050168;28;20571;-93
2023/01/07 10:33:19;;;;;;;2.60;2.40;;;11.30;99.90;;;;;;5059469;28;20208;-93
2023/01/07 10:35:58;;;;;;;2.87;2.00;;;11.40;99.90;;;;;;5049804;28;20193;-92
2023/01/07 10:38:25;;;;;;;3.73;2.60;;;11.40;99.90;;;;;;5060485;28;20201;-92
2023/01/07 10:40:59;;;;;;;2.60;2.30;;;11.40;99.90;;;;;;5054265;28;20723;-91
2023/01/07 10:43:39;;;;;;;2.43;2.23;;;11.40;99.90;;;;;;5054005;28;20567;-92
2023/01/07 10:46:26;;;;;;;3.40;2.77;;;11.50;99.90;;;;;;5053164;28;20664;-91
2023/01/07 10:49:25;;;;;;;3.23;2.93;;;11.50;99.90;;;;;;5058831;28;20208;-93
2023/01/07 10:52:18;;;;;;;6.17;2.47;;;11.50;99.90;;;;;;5061937;28;20256;-93
2023/01/07 10:55:14;;;;;;;2.73;2.10;;;11.50;99.90;;;;;;5057437;28;20672;-89
2023/01/07 10:57:41;;;;;;;2.83;2.20;;;11.60;99.90;;;;;;5054803;28;20205;-91
2023/01/07 11:00:15;;;;;;;4.27;2.40;;;11.70;99.90;;;;;;5053071;28;20199;-90
2023/01/07 11:02:45;;;;;;;2.53;2.33;;;11.70;99.90;;;;;;5052579;28;20752;-91
2023/01/07 11:05:13;;;;;;;2.40;2.20;;;11.70;99.90;;;;;;5054235;28;20211;-92
2023/01/07 11:07:46;;;;;;;2.40;2.20;;;11.70;99.90;;;;;;5053446;28;20437;-92
2023/01/07 11:10:16;;;;;;;2.40;2.20;;;11.80;99.90;;;;;;5054209;28;20225;-92
2023/01/07 11:12:46;;;;;;;3.13;1.93;;;11.80;99.90;;;;;;5054405;28;20191;-93
2023/01/07 11:15:19;;;;;;;2.87;1.80;;;12.00;99.90;;;;;;5053154;28;20210;-91
2023/01/07 11:17:51;;;;;;;1.33;1.33;;;12.10;99.90;;;;;;5054131;28;20209;-91
2023/01/07 11:20:56;;;;;;;1.57;1.47;;;12.10;99.90;;;;;;5054491;28;20213;-92
2023/01/07 11:23:32;;;;;;;1.70;1.60;;;12.10;99.90;;;;;;5054165;28;20652;-92
2023/01/07 11:26:15;;;;;;;1.47;1.37;;;12.10;99.90;;;;;;5055327;28;20216;-89
2023/01/07 11:28:48;;;;;;;1.63;1.20;;;12.20;99.90;;;;;;5054202;28;20228;-90
2023/01/07 11:31:15;;;;;;;1.30;1.30;;;12.20;99.90;;;;;;5054190;28;20233;-90
2023/01/07 11:33:47;;;;;;;1.40;1.30;;;12.20;99.90;;;;;;5055073;28;20213;-90
2023/01/07 11:36:15;;;;;;;3.23;1.50;;;12.30;99.90;;;;;;5055910;28;20217;-90
2023/01/07 11:38:43;;;;;;;2.00;1.40;;;12.30;99.90;;;;;;5054169;28;20233;-90
2023/01/07 11:41:22;;;;;;;1.40;1.30;;;12.20;99.90;;;;;;5057390;28;20205;-90
2023/01/07 11:43:51;;;;;;;1.57;1.47;;;12.20;99.90;;;;;;5057167;28;20197;-93
2023/01/07 11:46:19;;;;;;;1.60;1.20;;;12.30;99.90;;;;;;5056204;28;20208;-95
2023/01/07 11:48:52;;;;;;;1.30;1.30;;;12.20;99.90;;;;;;5056718;28;20202;-94
2023/01/07 11:51:22;;;;;;;1.23;1.13;;;12.20;99.90;;;;;;5055961;28;20230;-95
2023/01/07 11:53:57;;;;;;;1.40;1.30;;;12.20;99.90;;;;;;5059435;28;20394;-95
2023/01/07 11:56:29;;;;;;;1.20;1.20;;;12.30;99.90;;;;;;5060174;28;20216;-94
2023/01/07 11:59:27;;;;;;;1.50;1.40;;;12.30;99.90;;;;;;5058165;28;20487;-93
2023/01/07 12:01:55;;;;;;;1.23;1.23;;;12.20;99.90;;;;;;5059760;28;20275;-94
2023/01/07 12:04:24;;;;;;;1.43;1.20;;;12.20;99.90;;;;;;5057514;28;20209;-95
2023/01/07 12:06:54;;;;;;;1.77;1.67;;;12.20;99.90;;;;;;5058068;28;20210;-93
2023/01/07 12:09:28;;;;;;;2.13;1.87;;;12.20;99.90;;;;;;5057970;28;20205;-95
2023/01/07 12:11:57;;;;;;;3.13;1.70;;;12.30;99.90;;;;;;5058093;28;20288;-94
2023/01/07 12:14:27;;;;;;;1.90;1.80;;;12.30;99.90;;;;;;5057439;28;20198;-93
2023/01/07 12:16:56;;;;;;;2.20;1.80;;;12.30;99.90;;;;;;5057580;28;20221;-95
2023/01/07 12:19:51;;;;;;;2.50;2.07;;;12.20;99.90;;;;;;5057561;28;20259;-95
2023/01/07 12:22:29;;;;;;;3.47;2.50;;;12.30;99.90;;;;;;5057870;28;20203;-94
2023/01/07 12:25:23;;;;;;;4.73;2.30;;;12.30;99.90;;;;;;5057311;28;20652;-95
2023/01/07 12:28:03;;;;;;;5.07;2.90;;;12.20;99.90;;;;;;5057990;28;20292;-95
2023/01/07 12:30:50;;;;;;;2.57;2.37;;;12.30;99.90;;;;;;5057508;28;20198;-94
2023/01/07 12:33:25;;;;;;;3.30;2.40;;;12.30;99.90;;;;;;5057895;28;20303;-94
2023/01/07 12:35:56;;;;;;;3.77;2.63;;;12.30;99.90;;;;;;5056527;28;20205;-93
2023/01/07 12:38:38;;;;;;;3.23;2.40;;;12.30;99.90;;;;;;5056774;28;20630;-94
2023/01/07 12:41:11;;;;;;;3.17;2.60;;;12.40;99.90;;;;;;5061858;28;20665;-93
2023/01/07 12:43:47;;;;;;;3.40;2.50;;;12.50;99.90;;;;;;5069307;28;20205;-94
2023/01/07 12:46:17;;;;;;;3.10;2.40;;;12.50;99.90;;;;;;5076649;28;20202;-92
2023/01/07 12:48:56;;;;;;;3.10;2.37;;;12.60;99.90;;;;;;5076793;28;20197;-92
2023/01/07 12:51:28;;;;;;;2.30;1.73;;;12.50;99.90;;;;;;5072634;28;20210;-93
2023/01/07 12:54:01;;;;;;;5.27;1.60;;;12.50;99.90;;;;;;5076585;28;20216;-94
2023/01/07 12:56:33;;;;;;;1.50;1.40;;;12.50;99.90;;;;;;5076330;28;20209;-90
2023/01/07 12:59:05;;;;;;;1.60;1.40;;;12.40;99.90;;;;;;5068235;28;20653;-92
2023/01/07 13:01:36;;;;;;;2.13;1.30;;;12.40;99.90;;;;;;5065321;28;20204;-90
2023/01/07 13:04:11;;;;;;;1.80;1.33;;;12.40;99.90;;;;;;5076361;28;20205;-94
2023/01/07 13:06:44;;;;;;;1.70;1.60;;;12.40;99.90;;;;;;5051935;28;20221;-92
2023/01/07 13:09:27;;;;;;;1.53;1.40;;;12.50;99.90;;;;;;5050025;28;20206;-91
2023/01/07 13:14:49;;;;;;;1.33;1.20;;;12.40;99.90;;;;;;5063509;28;20209;-88
2023/01/07 13:17:20;;;;;;;2.33;1.13;;;12.40;99.90;;;;;;5064695;28;20225;-92
2023/01/07 13:19:47;;;;;;;1.90;1.30;;;12.40;99.90;;;;;;5055876;28;20202;-94